SEAM/ATF METAR and TAF weather

Enter ICAO airport designator
Station Type Date Time Source
SEAM METAR 2020/07/07 14:00 UTC NOAA

SEAM 071400Z 00000KT 9999 BKN012 BKN100 13/10 Q1030


Station Type Date Time Source
SEAM Decoded METAR 2020/07/07 14:00 UTC NOAA

Ambato / Chachoan, Ecuador (SEAM) 01-12S 078-34W
Jul 07, 2020 - 10:00 AM EDT / 2020.07.07 1400 UTC
Wind: Calm:0
Visibility: greater than 7 mile(s):0
Sky conditions: mostly cloudy
Temperature: 55 F (13 C)
Dew Point: 50 F (10 C)
Relative Humidity: 81%
Pressure (altimeter): 30.42 in. Hg (1030 hPa)
ob: SEAM 071400Z 00000KT 9999 BKN012 BKN100 13/10 Q1030
cycle: 14

Station Type Date Time Source
SEAM TAF UTC NOAA

Error!

Example: see airport list